createdAt,value
2018-09-24T00:00:11.413Z,1022.41
2018-09-24T00:01:11.319Z,1022.45
2018-09-24T00:02:11.383Z,1022.43
2018-09-24T00:03:11.547Z,1022.47
2018-09-24T00:04:11.499Z,1022.50
2018-09-24T00:05:11.563Z,1022.51
2018-09-24T00:06:11.628Z,1022.51
2018-09-24T00:07:11.687Z,1022.51
2018-09-24T00:08:11.752Z,1022.55
2018-09-24T00:09:11.815Z,1022.56
2018-09-24T00:10:11.867Z,1022.57
2018-09-24T00:11:11.931Z,1022.60
2018-09-24T00:12:11.991Z,1022.61
2018-09-24T00:13:12.059Z,1022.62
2018-09-24T00:14:12.120Z,1022.64
2018-09-24T00:15:12.178Z,1022.69
2018-09-24T00:16:12.235Z,1022.67
2018-09-24T00:17:12.300Z,1022.67
2018-09-24T00:18:12.368Z,1022.78
2018-09-24T00:19:12.432Z,1022.76
2018-09-24T00:20:12.483Z,1022.79
2018-09-24T00:21:12.547Z,1022.76
2018-09-24T00:22:12.609Z,1022.79
2018-09-24T00:23:12.671Z,1022.79
2018-09-24T00:24:12.740Z,1022.74
2018-09-24T00:25:12.792Z,1022.74
2018-09-24T00:26:12.853Z,1022.68
2018-09-24T00:27:12.915Z,1022.75
2018-09-24T00:28:12.976Z,1022.77
2018-09-24T00:29:13.040Z,1022.83
2018-09-24T00:30:13.096Z,1022.77
2018-09-24T00:31:13.157Z,1022.80
2018-09-24T00:32:13.220Z,1022.82
2018-09-24T00:33:13.396Z,1022.82
2018-09-24T00:34:13.340Z,1022.93
2018-09-24T00:35:13.401Z,1022.96
2018-09-24T00:36:13.456Z,1022.93
2018-09-24T00:37:13.528Z,1022.96
2018-09-24T00:38:13.592Z,1022.98
2018-09-24T00:39:13.652Z,1023.00
2018-09-24T00:40:13.705Z,1022.99
2018-09-24T00:41:13.768Z,1023.02
2018-09-24T00:42:13.829Z,1023.00
2018-09-24T00:43:13.899Z,1023.07
2018-09-24T00:44:13.956Z,1023.08
2018-09-24T00:45:14.012Z,1023.14
2018-09-24T00:46:14.072Z,1023.13
2018-09-24T00:47:14.138Z,1023.14
2018-09-24T00:48:14.216Z,1023.10
2018-09-24T00:49:14.257Z,1023.15
2018-09-24T00:50:14.320Z,1023.14
2018-09-24T00:51:14.381Z,1023.13
2018-09-24T00:52:14.441Z,1023.21
2018-09-24T00:53:14.509Z,1023.21
2018-09-24T00:54:14.569Z,1023.27
2018-09-24T00:55:14.625Z,1023.28
2018-09-24T00:56:14.685Z,1023.24
2018-09-24T00:57:14.746Z,1023.33
2018-09-24T00:58:14.813Z,1023.34
2018-09-24T00:59:14.881Z,1023.37
2018-09-24T01:00:14.949Z,1023.42
2018-09-24T01:01:14.989Z,1023.43
2018-09-24T01:02:15.053Z,1023.43
2018-09-24T01:03:15.221Z,1023.47
2018-09-24T01:04:15.173Z,1023.46
2018-09-24T01:05:15.237Z,1023.46
2018-09-24T01:06:15.297Z,1023.49
2018-09-24T01:07:15.360Z,1023.50
2018-09-24T01:08:15.425Z,1023.52
2018-09-24T01:09:15.491Z,1023.56
2018-09-24T01:10:15.541Z,1023.56
2018-09-24T01:11:15.601Z,1023.59
2018-09-24T01:12:15.661Z,1023.58
2018-09-24T01:13:15.730Z,1023.62
2018-09-24T01:14:15.793Z,1023.63
2018-09-24T01:15:15.845Z,1023.64
2018-09-24T01:16:15.915Z,1023.66
2018-09-24T01:17:15.969Z,1023.71
2018-09-24T01:18:16.038Z,1023.72
2018-09-24T01:19:16.097Z,1023.72
2018-09-24T01:20:16.157Z,1023.78
2018-09-24T01:21:16.217Z,1023.79
2018-09-24T01:22:16.273Z,1023.78
2018-09-24T01:23:16.342Z,1023.81
2018-09-24T01:24:16.402Z,1023.82
2018-09-24T01:25:16.460Z,1023.86
2018-09-24T01:26:16.521Z,1023.88
2018-09-24T01:27:16.582Z,1023.86
2018-09-24T01:28:16.646Z,1023.89
2018-09-24T01:29:16.710Z,1023.95
2018-09-24T01:30:16.762Z,1023.97
2018-09-24T01:31:16.826Z,1024.00
2018-09-24T01:32:16.886Z,1023.99
2018-09-24T01:33:16.958Z,1024.01
2018-09-24T01:34:17.014Z,1024.02
2018-09-24T01:35:17.074Z,1024.04
2018-09-24T01:36:17.130Z,1024.08
2018-09-24T01:37:17.191Z,1024.14
2018-09-24T01:38:17.286Z,1024.17
2018-09-24T01:39:17.314Z,1024.18
2018-09-24T01:40:17.374Z,1024.21
2018-09-24T01:41:17.434Z,1024.27
2018-09-24T01:42:17.495Z,1024.28
2018-09-24T01:43:17.566Z,1024.23
2018-09-24T01:44:17.627Z,1024.23
2018-09-24T01:45:17.683Z,1024.32
2018-09-24T01:46:17.743Z,1024.29
2018-09-24T01:47:17.802Z,1024.30
2018-09-24T01:48:17.871Z,1024.31
2018-09-24T01:49:17.933Z,1024.31
2018-09-24T01:50:17.987Z,1024.33
2018-09-24T01:51:18.051Z,1024.33
2018-09-24T01:52:18.115Z,1024.32
2018-09-24T01:53:18.531Z,1024.36
2018-09-24T01:54:18.230Z,1024.38
2018-09-24T01:55:18.295Z,1024.37
2018-09-24T01:56:18.355Z,1024.33
2018-09-24T01:57:18.419Z,1024.34
2018-09-24T01:58:18.477Z,1024.37
2018-09-24T01:59:18.633Z,1024.37
2018-09-24T02:00:18.599Z,1024.42
2018-09-24T02:01:18.669Z,1024.47
2018-09-24T02:02:18.727Z,1024.45
2018-09-24T02:03:18.783Z,1024.49
2018-09-24T02:04:18.858Z,1024.42
2018-09-24T02:05:18.920Z,1024.43
2018-09-24T02:06:18.967Z,1024.48
2018-09-24T02:07:19.027Z,1024.39
2018-09-24T02:08:19.092Z,1024.43
2018-09-24T02:09:19.256Z,1024.44
2018-09-24T02:10:19.212Z,1024.47
2018-09-24T02:11:19.272Z,1024.46
2018-09-24T02:12:19.332Z,1024.50
2018-09-24T02:13:19.395Z,1024.51
2018-09-24T02:14:19.467Z,1024.50
2018-09-24T02:15:19.524Z,1024.51
2018-09-24T02:16:19.576Z,1024.49
2018-09-24T02:17:19.645Z,1024.54
2018-09-24T02:18:19.700Z,1024.54
2018-09-24T02:19:19.768Z,1024.54
2018-09-24T02:20:19.832Z,1024.55
2018-09-24T02:21:19.884Z,1024.56
2018-09-24T02:22:19.944Z,1024.57
2018-09-24T02:23:20.004Z,1024.54
2018-09-24T02:24:20.176Z,1024.54
2018-09-24T02:25:20.129Z,1024.62
2018-09-24T02:26:20.188Z,1024.59
2018-09-24T02:27:20.257Z,1024.56
2018-09-24T02:28:20.308Z,1024.59
2018-09-24T02:29:20.380Z,1024.61
2018-09-24T02:30:20.441Z,1024.64
2018-09-24T02:31:20.492Z,1024.66
2018-09-24T02:32:20.552Z,1024.70
2018-09-24T02:33:20.617Z,1024.69
2018-09-24T02:34:20.685Z,1024.71
2018-09-24T02:35:20.745Z,1024.69
2018-09-24T02:36:20.797Z,1024.73
2018-09-24T02:37:20.860Z,1024.71
2018-09-24T02:38:20.920Z,1024.71
2018-09-24T02:39:20.989Z,1024.72
2018-09-24T02:40:21.049Z,1024.71
2018-09-24T02:41:21.105Z,1024.77
2018-09-24T02:42:21.165Z,1024.78
2018-09-24T02:43:21.230Z,1024.82
2018-09-24T02:44:21.469Z,1024.83
2018-09-24T02:45:21.349Z,1024.85
2018-09-24T02:46:21.409Z,1024.81
2018-09-24T02:47:21.469Z,1024.82
2018-09-24T02:48:21.530Z,1024.88
2018-09-24T02:49:21.597Z,1024.89
2018-09-24T02:50:21.662Z,1024.89
2018-09-24T02:51:21.713Z,1024.93
2018-09-24T02:52:21.782Z,1024.93
2018-09-24T02:53:21.842Z,1024.95
2018-09-24T02:54:21.905Z,1024.94
2018-09-24T02:55:21.966Z,1024.97
2018-09-24T02:56:22.017Z,1024.93
2018-09-24T02:57:22.082Z,1024.95
2018-09-24T02:58:22.152Z,1024.94
2018-09-24T02:59:22.268Z,1024.98
2018-09-24T03:00:22.267Z,1024.98
2018-09-24T03:01:22.397Z,1024.99
2018-09-24T03:02:22.386Z,1024.99
2018-09-24T03:03:22.454Z,1025.06
2018-09-24T03:04:22.514Z,1025.06
2018-09-24T03:05:22.574Z,1025.10
2018-09-24T03:06:22.634Z,1025.13
2018-09-24T03:07:22.690Z,1025.13
2018-09-24T03:08:22.755Z,1025.15
2018-09-24T03:09:22.822Z,1025.16
2018-09-24T03:10:22.878Z,1025.17
2018-09-24T03:11:22.938Z,1025.15
2018-09-24T03:12:22.995Z,1025.20
2018-09-24T03:13:23.059Z,1025.21
2018-09-24T03:14:23.142Z,1025.24
2018-09-24T03:15:23.178Z,1025.24
2018-09-24T03:16:23.238Z,1025.26
2018-09-24T03:17:23.298Z,1025.28
2018-09-24T03:18:23.363Z,1025.30
2018-09-24T03:19:23.426Z,1025.32
2018-09-24T03:20:23.487Z,1025.34
2018-09-24T03:21:23.543Z,1025.34
2018-09-24T03:22:23.603Z,1025.36
2018-09-24T03:23:23.667Z,1025.37
2018-09-24T03:24:23.731Z,1025.41
2018-09-24T03:25:23.795Z,1025.33
2018-09-24T03:26:23.898Z,1025.38
2018-09-24T03:27:23.911Z,1025.39
2018-09-24T03:28:23.972Z,1025.40
2018-09-24T03:29:24.040Z,1025.41
2018-09-24T03:30:24.125Z,1025.41
2018-09-24T03:31:24.154Z,1025.44
2018-09-24T03:32:24.211Z,1025.41
2018-09-24T03:33:24.276Z,1025.44
2018-09-24T03:34:24.700Z,1025.43
2018-09-24T03:35:24.395Z,1025.42
2018-09-24T03:36:24.455Z,1025.42
2018-09-24T03:37:24.523Z,1025.44
2018-09-24T03:38:24.579Z,1025.44
2018-09-24T03:39:24.639Z,1025.48
2018-09-24T03:40:24.745Z,1025.48
2018-09-24T03:41:24.759Z,1025.55
2018-09-24T03:42:24.823Z,1025.57
2018-09-24T03:43:24.884Z,1025.55
2018-09-24T03:44:24.944Z,1025.53
2018-09-24T03:45:25.011Z,1025.53
2018-09-24T03:46:25.076Z,1025.56
2018-09-24T03:47:25.127Z,1025.58
2018-09-24T03:48:25.189Z,1025.63
2018-09-24T03:49:25.252Z,1025.64
2018-09-24T03:50:25.308Z,1025.62
2018-09-24T03:51:25.560Z,1025.64
2018-09-24T03:52:25.433Z,1025.70
2018-09-24T03:53:25.492Z,1025.70
2018-09-24T03:54:25.552Z,1025.73
2018-09-24T03:55:25.616Z,1025.73
2018-09-24T03:56:25.679Z,1025.74
2018-09-24T03:57:25.744Z,1025.74
2018-09-24T03:58:25.796Z,1025.76
2018-09-24T03:59:25.862Z,1025.76
2018-09-24T04:00:25.920Z,1025.77
2018-09-24T04:01:25.985Z,1025.80
2018-09-24T04:02:26.048Z,1025.86
2018-09-24T04:03:26.100Z,1025.86
2018-09-24T04:04:26.161Z,1025.91
2018-09-24T04:05:26.220Z,1025.89
2018-09-24T04:06:26.304Z,1025.95
2018-09-24T04:07:26.344Z,1025.97
2018-09-24T04:08:26.405Z,1025.98
2018-09-24T04:09:26.481Z,1025.98
2018-09-24T04:10:26.530Z,1026.02
2018-09-24T04:11:26.596Z,1026.00
2018-09-24T04:12:26.652Z,1026.02
2018-09-24T04:13:26.711Z,1026.00
2018-09-24T04:14:26.777Z,1026.04
2018-09-24T04:15:26.829Z,1026.06
2018-09-24T04:16:26.896Z,1026.05
2018-09-24T04:17:26.956Z,1026.13
2018-09-24T04:18:27.013Z,1026.13
2018-09-24T04:19:27.102Z,1026.15
2018-09-24T04:20:27.135Z,1026.14
2018-09-24T04:21:27.309Z,1026.17
2018-09-24T04:22:27.257Z,1026.17
2018-09-24T04:23:27.321Z,1026.14
2018-09-24T04:24:27.380Z,1026.15
2018-09-24T04:25:27.437Z,1026.16
2018-09-24T04:26:27.505Z,1026.14
2018-09-24T04:27:27.565Z,1026.14
2018-09-24T04:28:27.625Z,1026.20
2018-09-24T04:29:27.681Z,1026.15
2018-09-24T04:30:27.749Z,1026.20
2018-09-24T04:31:27.808Z,1026.19
2018-09-24T04:32:27.869Z,1026.23
2018-09-24T04:33:27.925Z,1026.24
2018-09-24T04:34:27.990Z,1026.29
2018-09-24T04:35:28.045Z,1026.23
2018-09-24T04:36:28.471Z,1026.25
2018-09-24T04:37:28.169Z,1026.26
2018-09-24T04:38:28.229Z,1026.27
2018-09-24T04:39:28.374Z,1026.27
2018-09-24T04:40:28.354Z,1026.28
2018-09-24T04:41:28.413Z,1026.31
2018-09-24T04:42:28.487Z,1026.30
2018-09-24T04:43:28.526Z,1026.35
2018-09-24T04:44:28.594Z,1026.33
2018-09-24T04:45:28.657Z,1026.32
2018-09-24T04:46:28.722Z,1026.30
2018-09-24T04:47:28.782Z,1026.38
2018-09-24T04:48:28.850Z,1026.37
2018-09-24T04:49:28.898Z,1026.38
2018-09-24T04:50:28.953Z,1026.40
2018-09-24T04:51:29.019Z,1026.38
2018-09-24T04:52:29.263Z,1026.44
2018-09-24T04:53:29.145Z,1026.39
2018-09-24T04:54:29.198Z,1026.40
2018-09-24T04:55:29.258Z,1026.39
2018-09-24T04:56:29.319Z,1026.39
2018-09-24T04:57:29.387Z,1026.42
2018-09-24T04:58:29.481Z,1026.45
2018-09-24T04:59:29.502Z,1026.51
2018-09-24T05:00:29.564Z,1026.53
2018-09-24T05:01:29.622Z,1026.50
2018-09-24T05:02:29.694Z,1026.47
2018-09-24T05:03:29.751Z,1026.51
2018-09-24T05:04:29.802Z,1026.50
2018-09-24T05:05:29.863Z,1026.49
2018-09-24T05:06:29.926Z,1026.52
2018-09-24T05:07:29.995Z,1026.57
2018-09-24T05:08:30.051Z,1026.54
2018-09-24T05:09:30.133Z,1026.60
2018-09-24T05:10:30.167Z,1026.60
2018-09-24T05:11:30.227Z,1026.65
2018-09-24T05:12:30.288Z,1026.66
2018-09-24T05:13:30.454Z,1026.68
2018-09-24T05:14:30.411Z,1026.72
2018-09-24T05:15:30.475Z,1026.69
2018-09-24T05:16:30.586Z,1026.74
2018-09-24T05:17:30.590Z,1026.76
2018-09-24T05:18:30.669Z,1026.78
2018-09-24T05:19:30.719Z,1026.79
2018-09-24T05:20:30.775Z,1026.82
2018-09-24T05:21:30.835Z,1026.79
2018-09-24T05:22:30.907Z,1026.86
2018-09-24T05:23:30.963Z,1026.87
2018-09-24T05:24:31.023Z,1026.93
2018-09-24T05:25:31.079Z,1026.89
2018-09-24T05:26:31.139Z,1026.90
2018-09-24T05:27:31.203Z,1026.89
2018-09-24T05:28:31.313Z,1026.93
2018-09-24T05:29:31.326Z,1026.94
2018-09-24T05:30:31.384Z,1026.96
2018-09-24T05:31:31.439Z,1026.98
2018-09-24T05:32:31.547Z,1026.97
2018-09-24T05:33:31.568Z,1026.94
2018-09-24T05:34:31.686Z,1027.01
2018-09-24T05:35:31.684Z,1026.97
2018-09-24T05:36:31.745Z,1027.01
2018-09-24T05:37:31.808Z,1027.01
2018-09-24T05:38:31.872Z,1027.10
2018-09-24T05:39:31.932Z,1027.08
2018-09-24T05:40:31.992Z,1027.08
2018-09-24T05:41:32.049Z,1027.11
2018-09-24T05:42:32.108Z,1027.13
2018-09-24T05:43:32.441Z,1027.16
2018-09-24T05:44:32.228Z,1027.15
2018-09-24T05:45:32.288Z,1027.21
2018-09-24T05:46:32.348Z,1027.24
2018-09-24T05:47:32.413Z,1027.26
2018-09-24T05:48:32.480Z,1027.27
2018-09-24T05:49:32.536Z,1027.26
2018-09-24T05:50:32.592Z,1027.28
2018-09-24T05:51:32.656Z,1027.34
2018-09-24T05:52:32.720Z,1027.32
2018-09-24T05:53:32.780Z,1027.31
2018-09-24T05:54:32.841Z,1027.34
2018-09-24T05:55:32.906Z,1027.36
2018-09-24T05:56:32.962Z,1027.36
2018-09-24T05:57:33.033Z,1027.41
2018-09-24T05:58:33.172Z,1027.44
2018-09-24T05:59:33.145Z,1027.49
2018-09-24T06:00:33.201Z,1027.50
2018-09-24T06:01:33.261Z,1027.50
2018-09-24T06:02:33.321Z,1027.57
2018-09-24T06:03:33.389Z,1027.60
2018-09-24T06:04:33.484Z,1027.61
2018-09-24T06:05:33.501Z,1027.64
2018-09-24T06:06:33.565Z,1027.65
2018-09-24T06:07:33.626Z,1027.68
2018-09-24T06:08:33.698Z,1027.69
2018-09-24T06:09:33.753Z,1027.72
2018-09-24T06:10:33.805Z,1027.71
2018-09-24T06:11:33.874Z,1027.73
2018-09-24T06:12:33.929Z,1027.75
2018-09-24T06:13:34.002Z,1027.74
2018-09-24T06:14:34.058Z,1027.73
2018-09-24T06:15:34.115Z,1027.82
2018-09-24T06:16:34.174Z,1027.82
2018-09-24T06:17:34.234Z,1027.86
2018-09-24T06:18:34.294Z,1027.85
2018-09-24T06:19:34.454Z,1027.87
2018-09-24T06:20:34.414Z,1027.91
2018-09-24T06:21:34.478Z,1027.91
2018-09-24T06:22:34.543Z,1027.90
2018-09-24T06:23:34.602Z,1027.93
2018-09-24T06:24:34.666Z,1027.94
2018-09-24T06:25:34.726Z,1027.96
2018-09-24T06:26:34.786Z,1027.98
2018-09-24T06:27:34.842Z,1028.00
2018-09-24T06:28:34.903Z,1028.01
2018-09-24T06:29:34.970Z,1028.03
2018-09-24T06:30:35.034Z,1028.04
2018-09-24T06:31:35.099Z,1028.02
2018-09-24T06:32:35.150Z,1028.00
2018-09-24T06:33:35.206Z,1028.02
2018-09-24T06:34:35.363Z,1028.06
2018-09-24T06:35:35.331Z,1028.08
2018-09-24T06:36:35.399Z,1028.08
2018-09-24T06:37:35.451Z,1028.10
2018-09-24T06:38:35.511Z,1028.09
2018-09-24T06:39:35.578Z,1028.11
2018-09-24T06:40:35.651Z,1028.09
2018-09-24T06:41:35.695Z,1028.13
2018-09-24T06:42:35.755Z,1028.14
2018-09-24T06:43:35.820Z,1028.18
2018-09-24T06:44:35.887Z,1028.15
2018-09-24T06:45:35.952Z,1028.21
2018-09-24T06:46:36.000Z,1028.18
2018-09-24T06:47:36.063Z,1028.18
2018-09-24T06:48:36.126Z,1028.24
2018-09-24T06:49:36.489Z,1028.23
2018-09-24T06:50:36.247Z,1028.23
2018-09-24T06:51:36.307Z,1028.25
2018-09-24T06:52:36.367Z,1028.28
2018-09-24T06:53:36.427Z,1028.27
2018-09-24T06:54:36.496Z,1028.28
2018-09-24T06:55:36.559Z,1028.27
2018-09-24T06:56:36.612Z,1028.27
2018-09-24T06:57:36.672Z,1028.26
2018-09-24T06:58:36.743Z,1028.26
2018-09-24T06:59:36.859Z,1028.28
2018-09-24T07:00:36.866Z,1028.24
2018-09-24T07:01:36.920Z,1028.26
2018-09-24T07:02:36.980Z,1028.28
2018-09-24T07:03:37.040Z,1028.28
2018-09-24T07:04:37.125Z,1028.30
2018-09-24T07:05:37.175Z,1028.39
2018-09-24T07:06:37.228Z,1028.43
2018-09-24T07:07:37.284Z,1028.40
2018-09-24T07:08:37.368Z,1028.45
2018-09-24T07:09:37.416Z,1028.47
2018-09-24T07:10:37.476Z,1028.46
2018-09-24T07:11:37.529Z,1028.48
2018-09-24T07:12:37.602Z,1028.51
2018-09-24T07:13:37.652Z,1028.52
2018-09-24T07:14:37.720Z,1028.54
2018-09-24T07:15:37.784Z,1028.57
2018-09-24T07:16:37.837Z,1028.61
2018-09-24T07:17:37.896Z,1028.65
2018-09-24T07:18:37.960Z,1028.63
2018-09-24T07:19:38.029Z,1028.64
2018-09-24T07:20:38.089Z,1028.62
2018-09-24T07:21:38.147Z,1028.68
2018-09-24T07:22:38.208Z,1028.72
2018-09-24T07:23:38.269Z,1028.73
2018-09-24T07:24:38.520Z,1028.77
2018-09-24T07:25:38.389Z,1028.82
2018-09-24T07:26:38.453Z,1028.82
2018-09-24T07:27:38.525Z,1029.15
2018-09-24T07:28:38.573Z,1030.64
2018-09-24T07:29:38.641Z,1031.27
2018-09-24T07:30:38.705Z,1031.40
2018-09-24T07:31:38.761Z,1031.55
2018-09-24T07:32:38.821Z,1031.51
2018-09-24T07:33:38.885Z,1031.51
2018-09-24T07:34:38.958Z,1031.50
2018-09-24T07:35:39.021Z,1031.46
2018-09-24T07:36:39.077Z,1031.35
2018-09-24T07:37:39.141Z,1031.22
2018-09-24T07:38:39.205Z,1031.07
2018-09-24T07:39:39.554Z,1031.00
2018-09-24T07:40:39.333Z,1030.98
2018-09-24T07:41:39.409Z,1030.92
2018-09-24T07:42:39.465Z,1030.88
2018-09-24T07:43:39.534Z,1030.88
2018-09-24T07:44:39.605Z,1030.87
2018-09-24T07:45:39.670Z,1030.88
2018-09-24T07:46:39.745Z,1030.86
2018-09-24T07:47:39.798Z,1030.90
2018-09-24T07:48:39.866Z,1030.94
2018-09-24T07:49:39.938Z,1030.97
2018-09-24T07:50:40.026Z,1031.10
2018-09-24T07:51:40.066Z,1031.02
2018-09-24T07:52:40.135Z,1031.11
2018-09-24T07:53:40.202Z,1031.07
2018-09-24T07:54:40.274Z,1031.13
2018-09-24T07:55:40.471Z,1031.23
2018-09-24T07:56:40.406Z,1031.26
2018-09-24T07:57:40.474Z,1031.27
2018-09-24T07:58:40.547Z,1031.39
2018-09-24T07:59:40.610Z,1031.51
2018-09-24T08:00:40.690Z,1031.60
2018-09-24T08:01:40.754Z,1031.70
2018-09-24T08:02:40.819Z,1031.49
2018-09-24T08:03:40.886Z,1031.40
2018-09-24T08:04:40.955Z,1031.65
2018-09-24T08:05:41.034Z,1031.58
2018-09-24T08:06:41.099Z,1031.51
2018-09-24T08:07:41.164Z,1031.45
2018-09-24T08:08:41.231Z,1031.36
2018-09-24T08:09:41.303Z,1031.28
2018-09-24T08:10:41.679Z,1031.24
2018-09-24T08:11:41.444Z,1031.18
2018-09-24T08:12:41.529Z,1031.17
2018-09-24T08:13:41.579Z,1031.15
2018-09-24T08:14:41.653Z,1031.18
2018-09-24T08:15:41.731Z,1031.11
2018-09-24T08:16:41.799Z,1031.11
2018-09-24T08:17:41.858Z,1031.04
2018-09-24T08:18:41.923Z,1031.01
2018-09-24T08:19:42.003Z,1030.92
2018-09-24T08:20:42.183Z,1030.79
2018-09-24T08:21:42.143Z,1030.69
2018-09-24T08:22:42.207Z,1030.66
2018-09-24T08:23:42.279Z,1030.63
2018-09-24T08:24:42.347Z,1030.62
2018-09-24T08:25:42.431Z,1030.53
2018-09-24T08:26:42.495Z,1030.49
2018-09-24T08:27:42.559Z,1030.54
2018-09-24T08:28:42.637Z,1030.59
2018-09-24T08:29:42.702Z,1030.59
2018-09-24T08:30:42.779Z,1030.67
2018-09-24T08:31:42.847Z,1030.71
2018-09-24T08:32:42.907Z,1030.74
2018-09-24T08:33:42.979Z,1030.70
2018-09-24T08:34:43.059Z,1030.60
2018-09-24T08:35:43.135Z,1030.59
2018-09-24T08:36:43.192Z,1030.61
2018-09-24T08:37:43.264Z,1030.55
2018-09-24T08:38:43.331Z,1030.52
2018-09-24T08:39:43.403Z,1030.52
2018-09-24T08:40:43.479Z,1030.52
2018-09-24T08:41:43.548Z,1030.52
2018-09-24T08:42:43.612Z,1030.48
2018-09-24T08:43:43.692Z,1030.45
2018-09-24T08:44:43.755Z,1030.44
2018-09-24T08:45:43.834Z,1030.47
2018-09-24T08:46:43.900Z,1030.47
2018-09-24T08:47:43.964Z,1030.43
2018-09-24T08:48:44.036Z,1030.43
2018-09-24T08:49:44.177Z,1030.47
2018-09-24T08:50:44.202Z,1030.46
2018-09-24T08:51:44.248Z,1030.42
2018-09-24T08:52:44.316Z,1030.47
2018-09-24T08:53:44.388Z,1030.45
2018-09-24T08:54:44.459Z,1030.45
2018-09-24T08:55:44.532Z,1030.48
2018-09-24T08:56:44.649Z,1030.50
2018-09-24T08:57:44.668Z,1030.52
2018-09-24T08:58:44.736Z,1030.53
2018-09-24T08:59:44.808Z,1030.52
2018-09-24T09:00:44.890Z,1030.29
2018-09-24T09:01:44.952Z,1030.29
2018-09-24T09:02:45.031Z,1030.41
2018-09-24T09:03:45.089Z,1030.68
2018-09-24T09:04:45.156Z,1030.73
2018-09-24T09:05:45.316Z,1030.72
2018-09-24T09:06:45.299Z,1030.72
2018-09-24T09:07:45.365Z,1030.72
2018-09-24T09:08:45.432Z,1030.62
2018-09-24T09:09:45.507Z,1030.77
2018-09-24T09:10:45.581Z,1030.70
2018-09-24T09:11:45.649Z,1030.67
2018-09-24T09:12:45.718Z,1030.42
2018-09-24T09:13:45.780Z,1030.68
2018-09-24T09:14:45.857Z,1030.74
2018-09-24T09:15:45.928Z,1030.63
2018-09-24T09:16:45.997Z,1030.56
2018-09-24T09:17:46.061Z,1030.36
2018-09-24T09:18:46.129Z,1030.44
2018-09-24T09:19:46.201Z,1030.60
2018-09-24T09:20:46.365Z,1030.55
2018-09-24T09:21:46.337Z,1030.51
2018-09-24T09:22:46.409Z,1030.46
2018-09-24T09:23:46.481Z,1030.46
2018-09-24T09:24:46.545Z,1030.42
2018-09-24T09:25:46.621Z,1030.38
2018-09-24T09:26:46.689Z,1030.45
2018-09-24T09:27:46.753Z,1030.46
2018-09-24T09:28:46.822Z,1030.46
2018-09-24T09:29:46.893Z,1030.49
2018-09-24T09:30:46.966Z,1030.46
2018-09-24T09:31:47.033Z,1030.53
2018-09-24T09:32:47.094Z,1030.61
2018-09-24T09:33:47.161Z,1030.57
2018-09-24T09:34:47.229Z,1030.69
2018-09-24T09:35:47.314Z,1030.53
2018-09-24T09:36:47.365Z,1030.48
2018-09-24T09:37:47.434Z,1030.46
2018-09-24T09:38:47.502Z,1030.45
2018-09-24T09:39:47.566Z,1030.46
2018-09-24T09:40:47.643Z,1030.43
2018-09-24T09:41:47.710Z,1030.52
2018-09-24T09:42:47.770Z,1030.44
2018-09-24T09:43:47.838Z,1030.42
2018-09-24T09:44:47.902Z,1030.41
2018-09-24T09:45:47.982Z,1030.40
2018-09-24T09:46:48.052Z,1030.49
2018-09-24T09:47:48.106Z,1030.55
2018-09-24T09:48:48.171Z,1030.61
2018-09-24T09:49:48.242Z,1030.43
2018-09-24T09:50:48.302Z,1030.56
2018-09-24T09:51:48.389Z,1030.60
2018-09-24T09:52:48.439Z,1030.63
2018-09-24T09:53:48.505Z,1030.64
2018-09-24T09:54:48.574Z,1030.61
2018-09-24T09:55:48.639Z,1030.56
2018-09-24T09:56:48.711Z,1030.62
2018-09-24T09:57:48.779Z,1030.71
2018-09-24T09:58:48.843Z,1030.55
2018-09-24T09:59:48.903Z,1030.54
2018-09-24T10:00:48.975Z,1030.64
2018-09-24T10:01:49.042Z,1030.72
2018-09-24T10:02:49.111Z,1030.68
2018-09-24T10:03:49.174Z,1030.59
2018-09-24T10:04:49.280Z,1030.53
2018-09-24T10:05:49.303Z,1030.66
2018-09-24T10:06:49.386Z,1030.71
2018-09-24T10:07:49.447Z,1030.63
2018-09-24T10:08:49.503Z,1030.58
2018-09-24T10:09:49.571Z,1030.64
2018-09-24T10:10:49.635Z,1030.47
2018-09-24T10:11:49.711Z,1030.52
2018-09-24T10:12:49.777Z,1030.62
2018-09-24T10:13:49.837Z,1030.68
2018-09-24T10:14:49.903Z,1030.68
2018-09-24T10:15:49.973Z,1030.48
2018-09-24T10:16:50.045Z,1030.49
2018-09-24T10:17:50.111Z,1030.58
2018-09-24T10:18:50.168Z,1030.55
2018-09-24T10:19:50.236Z,1030.59
2018-09-24T10:20:50.300Z,1030.61
2018-09-24T10:21:50.407Z,1030.56
2018-09-24T10:22:50.436Z,1030.45
2018-09-24T10:23:50.504Z,1030.45
2018-09-24T10:24:50.572Z,1030.44
2018-09-24T10:25:50.632Z,1030.41
2018-09-24T10:26:50.708Z,1030.37
2018-09-24T10:27:50.772Z,1030.39
2018-09-24T10:28:50.832Z,1030.45
2018-09-24T10:29:50.900Z,1030.41
2018-09-24T10:30:50.965Z,1030.48
2018-09-24T10:31:51.068Z,1030.46
2018-09-24T10:32:51.112Z,1030.44
2018-09-24T10:33:51.190Z,1030.41
2018-09-24T10:34:51.229Z,1030.46
2018-09-24T10:35:51.296Z,1030.45
2018-09-24T10:36:51.369Z,1030.49
2018-09-24T10:37:51.443Z,1030.52
2018-09-24T10:38:51.497Z,1030.48
2018-09-24T10:39:51.561Z,1030.43
2018-09-24T10:40:51.625Z,1030.43
2018-09-24T10:41:51.700Z,1030.40
2018-09-24T10:42:51.765Z,1030.38
2018-09-24T10:43:51.829Z,1030.37
2018-09-24T10:44:51.898Z,1030.33
2018-09-24T10:45:52.015Z,1030.32
2018-09-24T10:46:52.029Z,1030.36
2018-09-24T10:47:52.113Z,1030.34
2018-09-24T10:48:52.157Z,1030.38
2018-09-24T10:49:52.221Z,1030.41
2018-09-24T10:50:52.289Z,1030.35
2018-09-24T10:51:52.361Z,1030.32
2018-09-24T10:52:52.434Z,1030.34
2018-09-24T10:53:52.485Z,1030.34
2018-09-24T10:54:52.553Z,1030.34
2018-09-24T10:55:52.688Z,1030.31
2018-09-24T10:56:52.689Z,1030.33
2018-09-24T10:57:52.762Z,1030.34
2018-09-24T10:58:52.818Z,1030.38
2018-09-24T10:59:52.887Z,1030.41
2018-09-24T11:00:52.947Z,1030.42
2018-09-24T11:01:53.017Z,1030.42
2018-09-24T11:02:53.086Z,1030.41
2018-09-24T11:03:53.145Z,1030.45
2018-09-24T11:04:53.225Z,1030.50
2018-09-24T11:05:53.274Z,1030.55
2018-09-24T11:06:53.349Z,1030.58
2018-09-24T11:07:53.409Z,1030.61
2018-09-24T11:08:53.474Z,1030.59
2018-09-24T11:09:53.540Z,1030.57
2018-09-24T11:10:53.602Z,1030.58
2018-09-24T11:11:53.673Z,1030.56
2018-09-24T11:12:53.737Z,1030.62
2018-09-24T11:13:53.793Z,1030.56
2018-09-24T11:14:53.861Z,1030.60
2018-09-24T11:15:53.940Z,1030.56
2018-09-24T11:16:54.252Z,1030.58
2018-09-24T11:17:54.173Z,1030.56
2018-09-24T11:18:54.122Z,1030.58
2018-09-24T11:19:54.186Z,1030.52
2018-09-24T11:20:54.250Z,1030.56
2018-09-24T11:21:54.686Z,1030.56
2018-09-24T11:22:54.386Z,1030.54
2018-09-24T11:23:54.446Z,1030.50
2018-09-24T11:24:54.510Z,1030.54
2018-09-24T11:25:54.578Z,1030.54
2018-09-24T11:26:54.642Z,1030.57
2018-09-24T11:27:54.798Z,1030.59
2018-09-24T11:28:54.770Z,1030.52
2018-09-24T11:29:54.838Z,1030.61
2018-09-24T11:30:54.903Z,1030.63
2018-09-24T11:31:54.966Z,1030.59
2018-09-24T11:32:55.038Z,1030.67
2018-09-24T11:33:55.102Z,1030.53
2018-09-24T11:34:55.162Z,1030.64
2018-09-24T11:35:55.230Z,1030.57
2018-09-24T11:36:55.295Z,1030.63
2018-09-24T11:37:55.367Z,1030.65
2018-09-24T11:38:55.430Z,1030.72
2018-09-24T11:39:55.494Z,1030.67
2018-09-24T11:40:55.558Z,1030.55
2018-09-24T11:41:55.619Z,1030.60
2018-09-24T11:42:55.694Z,1030.56
2018-09-24T11:43:55.763Z,1030.60
2018-09-24T11:44:55.814Z,1030.57
2018-09-24T11:45:55.899Z,1030.54
2018-09-24T11:46:56.057Z,1030.56
2018-09-24T11:47:56.022Z,1030.65
2018-09-24T11:48:56.083Z,1030.59
2018-09-24T11:49:56.144Z,1030.47
2018-09-24T11:50:56.211Z,1030.54
2018-09-24T11:51:56.275Z,1030.50
2018-09-24T11:52:56.394Z,1030.51
2018-09-24T11:53:56.415Z,1030.55
2018-09-24T11:54:56.474Z,1030.52
2018-09-24T11:55:56.543Z,1030.52
2018-09-24T11:56:56.603Z,1030.54
2018-09-24T11:57:56.676Z,1030.57
2018-09-24T11:58:56.739Z,1030.58
2018-09-24T11:59:56.803Z,1030.53
2018-09-24T12:00:56.863Z,1030.56
2018-09-24T12:01:56.965Z,1030.50
2018-09-24T12:02:56.999Z,1030.50
2018-09-24T12:03:57.067Z,1030.48
2018-09-24T12:04:57.123Z,1030.54
2018-09-24T12:05:57.191Z,1030.54